sensor_id;sensor_type;location;lat;lon;timestamp;P1;durP1;ratioP1;P2;durP2;ratioP2
27225;SDS011;14732;51.074;3.788;2022-08-30T00:01:03;9.20;;;5.75;;
27225;SDS011;14732;51.074;3.788;2022-08-30T00:03:35;11.13;;;5.60;;
27225;SDS011;14732;51.074;3.788;2022-08-30T00:06:03;14.45;;;5.90;;
27225;SDS011;14732;51.074;3.788;2022-08-30T00:08:34;12.07;;;5.90;;
27225;SDS011;14732;51.074;3.788;2022-08-30T00:11:00;11.73;;;5.55;;
27225;SDS011;14732;51.074;3.788;2022-08-30T00:13:27;17.77;;;6.20;;
27225;SDS011;14732;51.074;3.788;2022-08-30T00:15:53;14.40;;;6.45;;
27225;SDS011;14732;51.074;3.788;2022-08-30T00:18:19;12.57;;;6.07;;
27225;SDS011;14732;51.074;3.788;2022-08-30T00:20:45;10.75;;;6.32;;
27225;SDS011;14732;51.074;3.788;2022-08-30T00:23:14;13.55;;;5.45;;
27225;SDS011;14732;51.074;3.788;2022-08-30T00:25:40;14.57;;;6.00;;
27225;SDS011;14732;51.074;3.788;2022-08-30T00:28:07;11.63;;;5.60;;
27225;SDS011;14732;51.074;3.788;2022-08-30T00:30:33;13.32;;;5.72;;
27225;SDS011;14732;51.074;3.788;2022-08-30T00:32:59;10.88;;;5.63;;
27225;SDS011;14732;51.074;3.788;2022-08-30T00:35:25;10.15;;;5.70;;
27225;SDS011;14732;51.074;3.788;2022-08-30T00:37:51;12.65;;;5.47;;
27225;SDS011;14732;51.074;3.788;2022-08-30T00:40:17;13.98;;;5.53;;
27225;SDS011;14732;51.074;3.788;2022-08-30T00:42:44;11.43;;;5.88;;
27225;SDS011;14732;51.074;3.788;2022-08-30T00:45:14;12.05;;;5.60;;
27225;SDS011;14732;51.074;3.788;2022-08-30T00:47:45;14.63;;;5.20;;
27225;SDS011;14732;51.074;3.788;2022-08-30T00:50:11;11.50;;;5.28;;
27225;SDS011;14732;51.074;3.788;2022-08-30T00:52:40;14.45;;;6.10;;
27225;SDS011;14732;51.074;3.788;2022-08-30T00:55:08;13.75;;;5.53;;
27225;SDS011;14732;51.074;3.788;2022-08-30T00:57:38;11.95;;;6.00;;
27225;SDS011;14732;51.074;3.788;2022-08-30T01:00:05;14.13;;;6.05;;
27225;SDS011;14732;51.074;3.788;2022-08-30T01:02:32;11.48;;;6.25;;
27225;SDS011;14732;51.074;3.788;2022-08-30T01:04:59;14.70;;;5.85;;
27225;SDS011;14732;51.074;3.788;2022-08-30T01:07:26;13.95;;;6.47;;
27225;SDS011;14732;51.074;3.788;2022-08-30T01:09:52;10.07;;;5.43;;
27225;SDS011;14732;51.074;3.788;2022-08-30T01:12:18;8.85;;;6.18;;
27225;SDS011;14732;51.074;3.788;2022-08-30T01:14:44;8.98;;;4.95;;
27225;SDS011;14732;51.074;3.788;2022-08-30T01:17:10;20.02;;;5.93;;
27225;SDS011;14732;51.074;3.788;2022-08-30T01:19:43;11.60;;;6.45;;
27225;SDS011;14732;51.074;3.788;2022-08-30T01:25:05;12.07;;;5.55;;
27225;SDS011;14732;51.074;3.788;2022-08-30T01:27:33;12.90;;;5.22;;
27225;SDS011;14732;51.074;3.788;2022-08-30T01:30:04;13.52;;;6.18;;
27225;SDS011;14732;51.074;3.788;2022-08-30T01:32:30;12.70;;;6.38;;
27225;SDS011;14732;51.074;3.788;2022-08-30T01:35:03;14.13;;;5.95;;
27225;SDS011;14732;51.074;3.788;2022-08-30T01:37:30;11.45;;;5.65;;
27225;SDS011;14732;51.074;3.788;2022-08-30T01:39:57;13.05;;;6.30;;
27225;SDS011;14732;51.074;3.788;2022-08-30T01:42:24;15.65;;;6.03;;
27225;SDS011;14732;51.074;3.788;2022-08-30T01:44:49;14.60;;;5.65;;
27225;SDS011;14732;51.074;3.788;2022-08-30T01:47:15;15.23;;;6.30;;
27225;SDS011;14732;51.074;3.788;2022-08-30T01:49:43;13.20;;;6.03;;
27225;SDS011;14732;51.074;3.788;2022-08-30T01:52:10;9.60;;;5.70;;
27225;SDS011;14732;51.074;3.788;2022-08-30T01:54:36;14.98;;;5.70;;
27225;SDS011;14732;51.074;3.788;2022-08-30T01:57:03;13.38;;;6.10;;
27225;SDS011;14732;51.074;3.788;2022-08-30T01:59:31;13.23;;;6.07;;
27225;SDS011;14732;51.074;3.788;2022-08-30T02:01:57;12.43;;;6.00;;
27225;SDS011;14732;51.074;3.788;2022-08-30T02:04:22;11.15;;;5.40;;
27225;SDS011;14732;51.074;3.788;2022-08-30T02:06:50;11.82;;;6.25;;
27225;SDS011;14732;51.074;3.788;2022-08-30T02:09:16;11.02;;;5.63;;
27225;SDS011;14732;51.074;3.788;2022-08-30T02:11:41;9.50;;;5.20;;
27225;SDS011;14732;51.074;3.788;2022-08-30T02:14:08;11.32;;;5.60;;
27225;SDS011;14732;51.074;3.788;2022-08-30T02:16:34;10.98;;;6.50;;
27225;SDS011;14732;51.074;3.788;2022-08-30T02:18:59;11.50;;;5.97;;
27225;SDS011;14732;51.074;3.788;2022-08-30T02:21:25;9.68;;;5.65;;
27225;SDS011;14732;51.074;3.788;2022-08-30T02:23:53;15.20;;;6.50;;
27225;SDS011;14732;51.074;3.788;2022-08-30T02:26:20;11.73;;;6.20;;
27225;SDS011;14732;51.074;3.788;2022-08-30T02:28:46;9.93;;;5.38;;
27225;SDS011;14732;51.074;3.788;2022-08-30T02:31:12;10.52;;;6.20;;
27225;SDS011;14732;51.074;3.788;2022-08-30T02:33:38;14.05;;;6.60;;
27225;SDS011;14732;51.074;3.788;2022-08-30T02:36:04;8.27;;;5.90;;
27225;SDS011;14732;51.074;3.788;2022-08-30T02:38:31;11.07;;;6.65;;
27225;SDS011;14732;51.074;3.788;2022-08-30T02:40:58;9.77;;;6.32;;
27225;SDS011;14732;51.074;3.788;2022-08-30T02:43:23;9.82;;;6.70;;
27225;SDS011;14732;51.074;3.788;2022-08-30T02:45:49;16.15;;;6.45;;
27225;SDS011;14732;51.074;3.788;2022-08-30T02:48:15;14.70;;;7.10;;
27225;SDS011;14732;51.074;3.788;2022-08-30T02:50:42;11.68;;;6.97;;
27225;SDS011;14732;51.074;3.788;2022-08-30T02:53:10;12.40;;;7.10;;
27225;SDS011;14732;51.074;3.788;2022-08-30T02:55:35;11.18;;;6.63;;
27225;SDS011;14732;51.074;3.788;2022-08-30T02:58:01;13.48;;;7.43;;
27225;SDS011;14732;51.074;3.788;2022-08-30T03:00:27;10.13;;;6.90;;
27225;SDS011;14732;51.074;3.788;2022-08-30T03:02:53;13.30;;;7.22;;
27225;SDS011;14732;51.074;3.788;2022-08-30T03:05:18;15.73;;;7.53;;
27225;SDS011;14732;51.074;3.788;2022-08-30T03:07:45;12.30;;;6.95;;
27225;SDS011;14732;51.074;3.788;2022-08-30T03:10:11;9.20;;;6.97;;
27225;SDS011;14732;51.074;3.788;2022-08-30T03:12:38;11.88;;;7.15;;
27225;SDS011;14732;51.074;3.788;2022-08-30T03:15:05;13.85;;;7.30;;
27225;SDS011;14732;51.074;3.788;2022-08-30T03:17:31;15.85;;;7.70;;
27225;SDS011;14732;51.074;3.788;2022-08-30T03:19:57;10.38;;;6.38;;
27225;SDS011;14732;51.074;3.788;2022-08-30T03:22:24;17.00;;;7.05;;
27225;SDS011;14732;51.074;3.788;2022-08-30T03:24:50;16.70;;;7.63;;
27225;SDS011;14732;51.074;3.788;2022-08-30T03:27:16;15.95;;;6.97;;
27225;SDS011;14732;51.074;3.788;2022-08-30T03:29:41;10.00;;;5.88;;
27225;SDS011;14732;51.074;3.788;2022-08-30T03:32:07;13.68;;;7.13;;
27225;SDS011;14732;51.074;3.788;2022-08-30T03:34:33;12.02;;;7.22;;
27225;SDS011;14732;51.074;3.788;2022-08-30T03:36:58;13.55;;;6.63;;
27225;SDS011;14732;51.074;3.788;2022-08-30T03:39:25;8.80;;;6.05;;
27225;SDS011;14732;51.074;3.788;2022-08-30T03:41:51;12.68;;;7.25;;
27225;SDS011;14732;51.074;3.788;2022-08-30T03:44:18;11.57;;;6.50;;
27225;SDS011;14732;51.074;3.788;2022-08-30T03:46:44;14.40;;;7.35;;
27225;SDS011;14732;51.074;3.788;2022-08-30T03:49:11;14.25;;;7.22;;
27225;SDS011;14732;51.074;3.788;2022-08-30T03:51:37;10.30;;;6.78;;
27225;SDS011;14732;51.074;3.788;2022-08-30T03:54:02;12.25;;;7.45;;
27225;SDS011;14732;51.074;3.788;2022-08-30T03:56:28;12.25;;;6.40;;
27225;SDS011;14732;51.074;3.788;2022-08-30T03:58:54;12.52;;;7.00;;
27225;SDS011;14732;51.074;3.788;2022-08-30T04:01:19;16.98;;;7.70;;
27225;SDS011;14732;51.074;3.788;2022-08-30T04:03:45;11.85;;;7.57;;
27225;SDS011;14732;51.074;3.788;2022-08-30T04:06:11;11.98;;;7.03;;
27225;SDS011;14732;51.074;3.788;2022-08-30T04:08:37;17.92;;;7.80;;
27225;SDS011;14732;51.074;3.788;2022-08-30T04:11:03;15.27;;;7.80;;
27225;SDS011;14732;51.074;3.788;2022-08-30T04:13:29;13.73;;;7.72;;
27225;SDS011;14732;51.074;3.788;2022-08-30T04:15:55;15.90;;;7.55;;
27225;SDS011;14732;51.074;3.788;2022-08-30T04:18:20;13.25;;;7.80;;
27225;SDS011;14732;51.074;3.788;2022-08-30T04:20:46;15.40;;;7.90;;
27225;SDS011;14732;51.074;3.788;2022-08-30T04:23:12;14.00;;;7.78;;
27225;SDS011;14732;51.074;3.788;2022-08-30T04:25:39;17.20;;;8.05;;
27225;SDS011;14732;51.074;3.788;2022-08-30T04:28:05;14.15;;;7.65;;
27225;SDS011;14732;51.074;3.788;2022-08-30T04:30:31;11.00;;;8.48;;
27225;SDS011;14732;51.074;3.788;2022-08-30T04:32:57;18.00;;;8.55;;
27225;SDS011;14732;51.074;3.788;2022-08-30T04:35:23;13.80;;;8.70;;
27225;SDS011;14732;51.074;3.788;2022-08-30T04:37:49;11.02;;;7.50;;
27225;SDS011;14732;51.074;3.788;2022-08-30T04:40:15;14.18;;;8.63;;
27225;SDS011;14732;51.074;3.788;2022-08-30T04:42:41;11.15;;;7.80;;
27225;SDS011;14732;51.074;3.788;2022-08-30T04:45:12;17.55;;;9.00;;
27225;SDS011;14732;51.074;3.788;2022-08-30T04:47:40;13.52;;;8.32;;
27225;SDS011;14732;51.074;3.788;2022-08-30T04:50:07;11.45;;;8.10;;
27225;SDS011;14732;51.074;3.788;2022-08-30T04:52:34;13.55;;;8.07;;
27225;SDS011;14732;51.074;3.788;2022-08-30T04:55:00;12.55;;;7.50;;
27225;SDS011;14732;51.074;3.788;2022-08-30T04:57:26;13.82;;;7.32;;
27225;SDS011;14732;51.074;3.788;2022-08-30T04:59:53;11.82;;;7.88;;
27225;SDS011;14732;51.074;3.788;2022-08-30T05:02:19;13.18;;;7.68;;
27225;SDS011;14732;51.074;3.788;2022-08-30T05:04:45;14.55;;;9.02;;
27225;SDS011;14732;51.074;3.788;2022-08-30T05:07:30;12.25;;;8.80;;
27225;SDS011;14732;51.074;3.788;2022-08-30T05:09:56;15.32;;;8.45;;
27225;SDS011;14732;51.074;3.788;2022-08-30T05:12:22;12.45;;;8.55;;
27225;SDS011;14732;51.074;3.788;2022-08-30T05:14:49;15.15;;;8.45;;
27225;SDS011;14732;51.074;3.788;2022-08-30T05:17:15;15.60;;;8.80;;
27225;SDS011;14732;51.074;3.788;2022-08-30T05:19:40;13.55;;;8.80;;
27225;SDS011;14732;51.074;3.788;2022-08-30T05:22:06;12.93;;;8.60;;
27225;SDS011;14732;51.074;3.788;2022-08-30T05:24:33;9.90;;;7.70;;
27225;SDS011;14732;51.074;3.788;2022-08-30T05:26:59;10.77;;;8.27;;
27225;SDS011;14732;51.074;3.788;2022-08-30T05:29:24;11.77;;;7.88;;
27225;SDS011;14732;51.074;3.788;2022-08-30T05:31:50;13.30;;;7.57;;
27225;SDS011;14732;51.074;3.788;2022-08-30T05:34:16;11.40;;;7.68;;
27225;SDS011;14732;51.074;3.788;2022-08-30T05:36:42;11.63;;;7.00;;
27225;SDS011;14732;51.074;3.788;2022-08-30T05:39:08;12.45;;;7.55;;
27225;SDS011;14732;51.074;3.788;2022-08-30T05:41:35;12.65;;;8.18;;
27225;SDS011;14732;51.074;3.788;2022-08-30T05:44:02;14.27;;;8.27;;
27225;SDS011;14732;51.074;3.788;2022-08-30T05:46:29;13.98;;;8.13;;
27225;SDS011;14732;51.074;3.788;2022-08-30T05:51:29;11.20;;;7.05;;
27225;SDS011;14732;51.074;3.788;2022-08-30T05:53:57;12.65;;;7.97;;
27225;SDS011;14732;51.074;3.788;2022-08-30T05:56:27;11.75;;;7.90;;
27225;SDS011;14732;51.074;3.788;2022-08-30T05:58:56;10.82;;;7.45;;
27225;SDS011;14732;51.074;3.788;2022-08-30T06:03:49;14.82;;;7.47;;
27225;SDS011;14732;51.074;3.788;2022-08-30T06:06:16;13.57;;;7.25;;
27225;SDS011;14732;51.074;3.788;2022-08-30T06:08:41;11.25;;;7.65;;
27225;SDS011;14732;51.074;3.788;2022-08-30T06:11:10;11.45;;;7.28;;
27225;SDS011;14732;51.074;3.788;2022-08-30T06:13:36;12.07;;;7.20;;
27225;SDS011;14732;51.074;3.788;2022-08-30T06:16:03;13.50;;;8.00;;
27225;SDS011;14732;51.074;3.788;2022-08-30T06:18:28;9.70;;;8.02;;
27225;SDS011;14732;51.074;3.788;2022-08-30T06:20:55;11.25;;;7.63;;
27225;SDS011;14732;51.074;3.788;2022-08-30T06:23:21;15.25;;;8.13;;
27225;SDS011;14732;51.074;3.788;2022-08-30T06:25:47;11.85;;;8.35;;
27225;SDS011;14732;51.074;3.788;2022-08-30T06:28:13;13.57;;;8.40;;
27225;SDS011;14732;51.074;3.788;2022-08-30T06:30:39;13.02;;;8.45;;
27225;SDS011;14732;51.074;3.788;2022-08-30T06:33:06;13.15;;;8.70;;
27225;SDS011;14732;51.074;3.788;2022-08-30T06:35:33;11.52;;;8.20;;
27225;SDS011;14732;51.074;3.788;2022-08-30T06:37:59;12.25;;;8.57;;
27225;SDS011;14732;51.074;3.788;2022-08-30T06:40:24;12.55;;;8.50;;
27225;SDS011;14732;51.074;3.788;2022-08-30T06:42:50;14.98;;;9.57;;
27225;SDS011;14732;51.074;3.788;2022-08-30T06:45:16;16.52;;;8.82;;
27225;SDS011;14732;51.074;3.788;2022-08-30T06:47:42;9.25;;;7.70;;
27225;SDS011;14732;51.074;3.788;2022-08-30T06:50:09;14.05;;;8.48;;
27225;SDS011;14732;51.074;3.788;2022-08-30T06:52:36;12.20;;;7.93;;
27225;SDS011;14732;51.074;3.788;2022-08-30T06:55:03;11.98;;;7.75;;
27225;SDS011;14732;51.074;3.788;2022-08-30T06:57:29;16.10;;;9.00;;
27225;SDS011;14732;51.074;3.788;2022-08-30T06:59:55;13.30;;;8.10;;
27225;SDS011;14732;51.074;3.788;2022-08-30T07:02:21;15.07;;;9.05;;
27225;SDS011;14732;51.074;3.788;2022-08-30T07:04:47;10.80;;;8.70;;
27225;SDS011;14732;51.074;3.788;2022-08-30T07:07:12;11.48;;;8.07;;
27225;SDS011;14732;51.074;3.788;2022-08-30T07:09:38;13.18;;;8.48;;
27225;SDS011;14732;51.074;3.788;2022-08-30T07:12:07;11.18;;;8.32;;
27225;SDS011;14732;51.074;3.788;2022-08-30T07:14:34;13.43;;;8.50;;
27225;SDS011;14732;51.074;3.788;2022-08-30T07:17:00;13.82;;;8.73;;
27225;SDS011;14732;51.074;3.788;2022-08-30T07:19:26;13.88;;;8.98;;
27225;SDS011;14732;51.074;3.788;2022-08-30T07:21:51;11.88;;;8.57;;
27225;SDS011;14732;51.074;3.788;2022-08-30T07:24:17;10.77;;;8.52;;
27225;SDS011;14732;51.074;3.788;2022-08-30T07:26:45;10.65;;;8.80;;
27225;SDS011;14732;51.074;3.788;2022-08-30T07:29:14;10.90;;;7.95;;
27225;SDS011;14732;51.074;3.788;2022-08-30T07:31:41;11.80;;;8.75;;
27225;SDS011;14732;51.074;3.788;2022-08-30T07:34:07;9.80;;;8.48;;
27225;SDS011;14732;51.074;3.788;2022-08-30T07:36:34;17.63;;;8.73;;
27225;SDS011;14732;51.074;3.788;2022-08-30T07:39:01;13.27;;;8.38;;
27225;SDS011;14732;51.074;3.788;2022-08-30T07:41:32;11.75;;;8.98;;
27225;SDS011;14732;51.074;3.788;2022-08-30T07:44:00;10.27;;;8.75;;
27225;SDS011;14732;51.074;3.788;2022-08-30T07:46:26;12.98;;;8.70;;
27225;SDS011;14732;51.074;3.788;2022-08-30T07:48:52;15.25;;;8.65;;
27225;SDS011;14732;51.074;3.788;2022-08-30T07:51:20;11.98;;;8.70;;
27225;SDS011;14732;51.074;3.788;2022-08-30T07:56:14;13.73;;;8.68;;
27225;SDS011;14732;51.074;3.788;2022-08-30T07:58:40;15.13;;;9.18;;
27225;SDS011;14732;51.074;3.788;2022-08-30T08:01:06;13.10;;;7.88;;
27225;SDS011;14732;51.074;3.788;2022-08-30T08:03:34;13.10;;;8.85;;
27225;SDS011;14732;51.074;3.788;2022-08-30T08:06:02;14.60;;;8.20;;
27225;SDS011;14732;51.074;3.788;2022-08-30T08:08:30;12.15;;;8.20;;
27225;SDS011;14732;51.074;3.788;2022-08-30T08:10:56;13.60;;;8.60;;
27225;SDS011;14732;51.074;3.788;2022-08-30T08:13:22;10.50;;;8.02;;
27225;SDS011;14732;51.074;3.788;2022-08-30T08:15:48;12.40;;;8.43;;
27225;SDS011;14732;51.074;3.788;2022-08-30T08:18:14;9.73;;;7.53;;
27225;SDS011;14732;51.074;3.788;2022-08-30T08:20:40;11.82;;;7.78;;
27225;SDS011;14732;51.074;3.788;2022-08-30T08:23:09;9.55;;;7.47;;
27225;SDS011;14732;51.074;3.788;2022-08-30T08:25:36;14.30;;;7.65;;
27225;SDS011;14732;51.074;3.788;2022-08-30T08:28:03;11.20;;;7.60;;
27225;SDS011;14732;51.074;3.788;2022-08-30T08:30:31;12.05;;;7.63;;
27225;SDS011;14732;51.074;3.788;2022-08-30T08:32:59;12.40;;;7.10;;
27225;SDS011;14732;51.074;3.788;2022-08-30T08:35:25;12.32;;;6.97;;
27225;SDS011;14732;51.074;3.788;2022-08-30T08:37:50;9.93;;;6.63;;
27225;SDS011;14732;51.074;3.788;2022-08-30T08:40:17;14.25;;;6.65;;
27225;SDS011;14732;51.074;3.788;2022-08-30T08:42:55;13.20;;;7.18;;
27225;SDS011;14732;51.074;3.788;2022-08-30T08:45:30;17.02;;;7.13;;
27225;SDS011;14732;51.074;3.788;2022-08-30T08:48:06;16.40;;;6.35;;
27225;SDS011;14732;51.074;3.788;2022-08-30T08:50:52;9.63;;;6.20;;
27225;SDS011;14732;51.074;3.788;2022-08-30T08:53:38;10.88;;;6.43;;
27225;SDS011;14732;51.074;3.788;2022-08-30T08:56:06;9.65;;;6.10;;
27225;SDS011;14732;51.074;3.788;2022-08-30T08:58:41;8.43;;;6.43;;
27225;SDS011;14732;51.074;3.788;2022-08-30T09:01:10;9.57;;;6.13;;
27225;SDS011;14732;51.074;3.788;2022-08-30T09:03:37;11.25;;;5.30;;
27225;SDS011;14732;51.074;3.788;2022-08-30T09:06:06;7.60;;;6.13;;
27225;SDS011;14732;51.074;3.788;2022-08-30T09:08:44;11.25;;;6.32;;
27225;SDS011;14732;51.074;3.788;2022-08-30T09:11:09;8.07;;;6.10;;
27225;SDS011;14732;51.074;3.788;2022-08-30T09:13:40;7.07;;;6.10;;
27225;SDS011;14732;51.074;3.788;2022-08-30T09:16:06;8.15;;;5.90;;
27225;SDS011;14732;51.074;3.788;2022-08-30T09:18:40;5.40;;;4.32;;
27225;SDS011;14732;51.074;3.788;2022-08-30T09:21:08;10.52;;;5.53;;
27225;SDS011;14732;51.074;3.788;2022-08-30T09:23:36;9.18;;;5.72;;
27225;SDS011;14732;51.074;3.788;2022-08-30T09:26:10;7.82;;;5.57;;
27225;SDS011;14732;51.074;3.788;2022-08-30T09:28:46;9.52;;;6.10;;
27225;SDS011;14732;51.074;3.788;2022-08-30T09:31:31;10.32;;;5.63;;
27225;SDS011;14732;51.074;3.788;2022-08-30T09:34:16;13.23;;;5.70;;
27225;SDS011;14732;51.074;3.788;2022-08-30T09:36:48;7.25;;;5.47;;
27225;SDS011;14732;51.074;3.788;2022-08-30T09:39:20;6.57;;;4.90;;
27225;SDS011;14732;51.074;3.788;2022-08-30T09:41:50;12.57;;;5.78;;
27225;SDS011;14732;51.074;3.788;2022-08-30T09:44:21;7.43;;;4.88;;
27225;SDS011;14732;51.074;3.788;2022-08-30T09:46:52;9.93;;;5.82;;
27225;SDS011;14732;51.074;3.788;2022-08-30T09:52:00;7.07;;;5.47;;
27225;SDS011;14732;51.074;3.788;2022-08-30T09:54:58;7.70;;;5.22;;
27225;SDS011;14732;51.074;3.788;2022-08-30T09:57:56;12.65;;;5.15;;
27225;SDS011;14732;51.074;3.788;2022-08-30T10:00:24;6.97;;;5.40;;
27225;SDS011;14732;51.074;3.788;2022-08-30T10:11:45;8.55;;;4.90;;
27225;SDS011;14732;51.074;3.788;2022-08-30T10:14:25;9.07;;;5.70;;
27225;SDS011;14732;51.074;3.788;2022-08-30T10:17:02;8.40;;;4.78;;
27225;SDS011;14732;51.074;3.788;2022-08-30T10:22:23;11.75;;;5.85;;
27225;SDS011;14732;51.074;3.788;2022-08-30T10:24:56;8.63;;;4.45;;
27225;SDS011;14732;51.074;3.788;2022-08-30T10:27:30;10.60;;;4.78;;
27225;SDS011;14732;51.074;3.788;2022-08-30T10:30:19;9.00;;;5.20;;
27225;SDS011;14732;51.074;3.788;2022-08-30T10:32:49;10.50;;;5.38;;
27225;SDS011;14732;51.074;3.788;2022-08-30T10:35:24;9.20;;;5.32;;
27225;SDS011;14732;51.074;3.788;2022-08-30T10:38:03;6.20;;;5.18;;
27225;SDS011;14732;51.074;3.788;2022-08-30T10:40:35;8.13;;;5.28;;
27225;SDS011;14732;51.074;3.788;2022-08-30T10:46:08;6.93;;;4.95;;
27225;SDS011;14732;51.074;3.788;2022-08-30T10:48:55;7.68;;;5.10;;
27225;SDS011;14732;51.074;3.788;2022-08-30T10:54:11;9.25;;;4.80;;
27225;SDS011;14732;51.074;3.788;2022-08-30T10:56:42;8.48;;;4.65;;
27225;SDS011;14732;51.074;3.788;2022-08-30T10:59:15;8.85;;;5.63;;
27225;SDS011;14732;51.074;3.788;2022-08-30T11:02:04;9.00;;;4.45;;
27225;SDS011;14732;51.074;3.788;2022-08-30T11:05:03;6.75;;;4.88;;
27225;SDS011;14732;51.074;3.788;2022-08-30T11:13:24;8.85;;;4.20;;
27225;SDS011;14732;51.074;3.788;2022-08-30T11:18:52;7.72;;;3.72;;
27225;SDS011;14732;51.074;3.788;2022-08-30T11:21:30;5.57;;;3.92;;
27225;SDS011;14732;51.074;3.788;2022-08-30T11:31:51;9.20;;;3.75;;
27225;SDS011;14732;51.074;3.788;2022-08-30T11:37:40;6.30;;;3.17;;
27225;SDS011;14732;51.074;3.788;2022-08-30T11:42:49;11.13;;;3.55;;
27225;SDS011;14732;51.074;3.788;2022-08-30T11:47:49;7.35;;;3.05;;
27225;SDS011;14732;51.074;3.788;2022-08-30T11:55:58;7.47;;;3.17;;
27225;SDS011;14732;51.074;3.788;2022-08-30T11:58:56;6.28;;;3.75;;
27225;SDS011;14732;51.074;3.788;2022-08-30T12:01:35;4.95;;;3.17;;
27225;SDS011;14732;51.074;3.788;2022-08-30T12:12:05;7.93;;;2.70;;
27225;SDS011;14732;51.074;3.788;2022-08-30T12:14:41;8.77;;;3.60;;
27225;SDS011;14732;51.074;3.788;2022-08-30T12:22:53;6.13;;;3.00;;
27225;SDS011;14732;51.074;3.788;2022-08-30T12:25:23;5.70;;;2.70;;
27225;SDS011;14732;51.074;3.788;2022-08-30T12:28:11;9.18;;;3.45;;
27225;SDS011;14732;51.074;3.788;2022-08-30T12:31:04;4.93;;;2.85;;
27225;SDS011;14732;51.074;3.788;2022-08-30T12:33:54;10.55;;;2.90;;
27225;SDS011;14732;51.074;3.788;2022-08-30T12:36:37;9.10;;;2.85;;
27225;SDS011;14732;51.074;3.788;2022-08-30T12:39:12;4.95;;;2.90;;
27225;SDS011;14732;51.074;3.788;2022-08-30T12:41:42;10.88;;;2.97;;
27225;SDS011;14732;51.074;3.788;2022-08-30T12:44:09;6.03;;;2.60;;
27225;SDS011;14732;51.074;3.788;2022-08-30T12:46:47;8.05;;;2.75;;
27225;SDS011;14732;51.074;3.788;2022-08-30T12:49:16;5.70;;;2.53;;
27225;SDS011;14732;51.074;3.788;2022-08-30T12:51:44;7.50;;;2.75;;
27225;SDS011;14732;51.074;3.788;2022-08-30T12:54:15;4.95;;;3.13;;
27225;SDS011;14732;51.074;3.788;2022-08-30T12:56:47;6.93;;;3.22;;
27225;SDS011;14732;51.074;3.788;2022-08-30T13:02:21;8.63;;;2.80;;
27225;SDS011;14732;51.074;3.788;2022-08-30T13:08:08;5.05;;;2.00;;
27225;SDS011;14732;51.074;3.788;2022-08-30T13:10:59;3.45;;;2.10;;
27225;SDS011;14732;51.074;3.788;2022-08-30T13:15:54;8.10;;;2.10;;
27225;SDS011;14732;51.074;3.788;2022-08-30T13:18:27;11.43;;;2.58;;
27225;SDS011;14732;51.074;3.788;2022-08-30T13:23:53;9.45;;;2.10;;
27225;SDS011;14732;51.074;3.788;2022-08-30T13:26:20;8.85;;;2.70;;
27225;SDS011;14732;51.074;3.788;2022-08-30T13:28:48;8.35;;;2.53;;
27225;SDS011;14732;51.074;3.788;2022-08-30T13:31:20;5.50;;;2.60;;
27225;SDS011;14732;51.074;3.788;2022-08-30T13:33:46;4.15;;;2.58;;
27225;SDS011;14732;51.074;3.788;2022-08-30T13:36:16;4.47;;;2.22;;
27225;SDS011;14732;51.074;3.788;2022-08-30T13:38:42;5.03;;;2.08;;
27225;SDS011;14732;51.074;3.788;2022-08-30T13:41:08;6.22;;;2.13;;
27225;SDS011;14732;51.074;3.788;2022-08-30T13:43:35;6.28;;;2.35;;
27225;SDS011;14732;51.074;3.788;2022-08-30T13:46:01;8.52;;;2.50;;
27225;SDS011;14732;51.074;3.788;2022-08-30T13:48:27;7.03;;;2.65;;
27225;SDS011;14732;51.074;3.788;2022-08-30T13:50:53;6.90;;;2.35;;
27225;SDS011;14732;51.074;3.788;2022-08-30T13:53:19;5.25;;;2.13;;
27225;SDS011;14732;51.074;3.788;2022-08-30T13:55:45;8.18;;;2.42;;
27225;SDS011;14732;51.074;3.788;2022-08-30T13:58:10;3.10;;;2.13;;
27225;SDS011;14732;51.074;3.788;2022-08-30T14:00:37;4.18;;;2.40;;
27225;SDS011;14732;51.074;3.788;2022-08-30T14:03:02;5.13;;;2.40;;
27225;SDS011;14732;51.074;3.788;2022-08-30T14:05:30;5.85;;;2.20;;
27225;SDS011;14732;51.074;3.788;2022-08-30T14:07:58;14.20;;;2.70;;
27225;SDS011;14732;51.074;3.788;2022-08-30T14:10:25;6.18;;;2.60;;
27225;SDS011;14732;51.074;3.788;2022-08-30T14:12:52;10.77;;;2.30;;
27225;SDS011;14732;51.074;3.788;2022-08-30T14:15:18;12.05;;;3.17;;
27225;SDS011;14732;51.074;3.788;2022-08-30T14:17:44;5.63;;;2.30;;
27225;SDS011;14732;51.074;3.788;2022-08-30T14:20:10;3.50;;;2.55;;
27225;SDS011;14732;51.074;3.788;2022-08-30T14:22:37;5.03;;;2.80;;
27225;SDS011;14732;51.074;3.788;2022-08-30T14:25:03;9.60;;;2.55;;
27225;SDS011;14732;51.074;3.788;2022-08-30T14:27:29;14.93;;;2.33;;
27225;SDS011;14732;51.074;3.788;2022-08-30T14:29:55;13.45;;;2.30;;
27225;SDS011;14732;51.074;3.788;2022-08-30T14:32:21;3.72;;;2.70;;
27225;SDS011;14732;51.074;3.788;2022-08-30T14:34:48;10.60;;;1.95;;
27225;SDS011;14732;51.074;3.788;2022-08-30T14:37:14;6.97;;;2.20;;
27225;SDS011;14732;51.074;3.788;2022-08-30T14:39:40;9.35;;;2.08;;
27225;SDS011;14732;51.074;3.788;2022-08-30T14:42:06;4.45;;;2.03;;
27225;SDS011;14732;51.074;3.788;2022-08-30T14:44:32;9.40;;;2.10;;
27225;SDS011;14732;51.074;3.788;2022-08-30T14:46:59;6.32;;;2.58;;
27225;SDS011;14732;51.074;3.788;2022-08-30T14:49:25;3.50;;;2.20;;
27225;SDS011;14732;51.074;3.788;2022-08-30T14:51:51;5.75;;;2.58;;
27225;SDS011;14732;51.074;3.788;2022-08-30T14:54:18;8.10;;;2.20;;
27225;SDS011;14732;51.074;3.788;2022-08-30T14:56:46;6.60;;;2.50;;
27225;SDS011;14732;51.074;3.788;2022-08-30T14:59:12;4.13;;;2.28;;
27225;SDS011;14732;51.074;3.788;2022-08-30T15:01:39;5.65;;;2.33;;
27225;SDS011;14732;51.074;3.788;2022-08-30T15:04:05;5.57;;;2.30;;
27225;SDS011;14732;51.074;3.788;2022-08-30T15:06:33;5.78;;;2.22;;
27225;SDS011;14732;51.074;3.788;2022-08-30T15:08:59;7.97;;;2.00;;
27225;SDS011;14732;51.074;3.788;2022-08-30T15:11:25;4.38;;;2.13;;
27225;SDS011;14732;51.074;3.788;2022-08-30T15:13:52;4.40;;;2.20;;
27225;SDS011;14732;51.074;3.788;2022-08-30T15:16:22;4.88;;;2.10;;
27225;SDS011;14732;51.074;3.788;2022-08-30T15:18:53;5.63;;;2.10;;
27225;SDS011;14732;51.074;3.788;2022-08-30T15:21:23;8.10;;;2.25;;
27225;SDS011;14732;51.074;3.788;2022-08-30T15:23:54;7.57;;;1.50;;
27225;SDS011;14732;51.074;3.788;2022-08-30T15:26:21;4.43;;;1.90;;
27225;SDS011;14732;51.074;3.788;2022-08-30T15:28:49;6.90;;;1.75;;
27225;SDS011;14732;51.074;3.788;2022-08-30T15:31:17;3.67;;;1.63;;
27225;SDS011;14732;51.074;3.788;2022-08-30T15:33:44;5.77;;;1.90;;
27225;SDS011;14732;51.074;3.788;2022-08-30T15:36:10;4.30;;;1.60;;
27225;SDS011;14732;51.074;3.788;2022-08-30T15:38:36;11.10;;;2.60;;
27225;SDS011;14732;51.074;3.788;2022-08-30T15:41:03;5.88;;;1.95;;
27225;SDS011;14732;51.074;3.788;2022-08-30T15:43:30;7.50;;;1.80;;
27225;SDS011;14732;51.074;3.788;2022-08-30T15:45:56;6.30;;;1.92;;
27225;SDS011;14732;51.074;3.788;2022-08-30T15:48:52;9.05;;;1.90;;
27225;SDS011;14732;51.074;3.788;2022-08-30T15:51:19;8.40;;;1.87;;
27225;SDS011;14732;51.074;3.788;2022-08-30T15:53:46;7.80;;;1.60;;
27225;SDS011;14732;51.074;3.788;2022-08-30T15:56:13;10.35;;;1.88;;
27225;SDS011;14732;51.074;3.788;2022-08-30T15:58:39;6.80;;;1.80;;
27225;SDS011;14732;51.074;3.788;2022-08-30T16:01:06;7.05;;;1.75;;
27225;SDS011;14732;51.074;3.788;2022-08-30T16:03:33;15.23;;;2.05;;
27225;SDS011;14732;51.074;3.788;2022-08-30T16:05:59;6.65;;;1.70;;
27225;SDS011;14732;51.074;3.788;2022-08-30T16:08:26;6.70;;;1.92;;
27225;SDS011;14732;51.074;3.788;2022-08-30T16:10:52;9.55;;;2.17;;
27225;SDS011;14732;51.074;3.788;2022-08-30T16:13:18;7.50;;;2.25;;
27225;SDS011;14732;51.074;3.788;2022-08-30T16:15:44;4.70;;;1.48;;